createdAt,value
2018-12-30T00:02:34.214Z,6.90
2018-12-30T00:05:14.954Z,6.90
2018-12-30T00:07:55.415Z,6.90
2018-12-30T00:10:36.275Z,7.00
2018-12-30T00:13:16.665Z,7.00
2018-12-30T00:15:57.510Z,7.00
2018-12-30T00:18:38.599Z,7.00
2018-12-30T00:21:19.415Z,7.00
2018-12-30T00:23:59.930Z,7.00
2018-12-30T00:26:40.746Z,7.00
2018-12-30T00:29:21.367Z,7.00
2018-12-30T00:32:02.043Z,7.00
2018-12-30T00:34:42.476Z,7.00
2018-12-30T00:37:23.349Z,7.00
2018-12-30T00:40:04.061Z,7.00
2018-12-30T00:42:44.764Z,6.90
2018-12-30T00:45:25.671Z,6.90
2018-12-30T00:48:06.605Z,6.90
2018-12-30T00:50:47.759Z,6.80
2018-12-30T00:53:28.210Z,6.80
2018-12-30T00:56:09.045Z,6.80
2018-12-30T00:58:49.730Z,6.70
2018-12-30T01:01:30.542Z,6.70
2018-12-30T01:04:11.145Z,6.70
2018-12-30T01:06:52.107Z,6.70
2018-12-30T01:09:33.255Z,6.70
2018-12-30T01:12:14.557Z,6.70
2018-12-30T01:14:55.029Z,6.60
2018-12-30T01:17:36.238Z,6.50
2018-12-30T01:20:16.877Z,6.60
2018-12-30T01:22:57.406Z,6.60
2018-12-30T01:25:38.297Z,6.60
2018-12-30T01:28:18.849Z,6.50
2018-12-30T01:30:59.450Z,6.50
2018-12-30T01:33:40.556Z,6.50
2018-12-30T01:36:21.646Z,6.50
2018-12-30T01:39:02.413Z,6.50
2018-12-30T01:41:42.762Z,6.50
2018-12-30T01:44:23.430Z,6.50
2018-12-30T01:47:04.741Z,6.50
2018-12-30T01:49:45.117Z,6.40
2018-12-30T01:52:25.602Z,6.50
2018-12-30T01:55:06.324Z,6.50
2018-12-30T01:57:46.894Z,6.60
2018-12-30T02:00:27.524Z,6.50
2018-12-30T02:03:07.956Z,6.60
2018-12-30T02:05:48.688Z,6.70
2018-12-30T02:08:29.545Z,6.70
2018-12-30T02:11:09.903Z,6.70
2018-12-30T02:13:50.530Z,6.80
2018-12-30T02:16:31.178Z,6.80
2018-12-30T02:19:11.627Z,6.90
2018-12-30T02:21:52.382Z,6.90
2018-12-30T02:24:33.138Z,7.00
2018-12-30T02:27:14.029Z,7.00
2018-12-30T02:29:54.780Z,6.90
2018-12-30T02:32:35.403Z,7.00
2018-12-30T02:35:16.087Z,7.00
2018-12-30T02:37:56.795Z,6.90
2018-12-30T02:40:37.394Z,7.00
2018-12-30T02:43:17.907Z,6.90
2018-12-30T02:45:58.605Z,6.90
2018-12-30T02:48:39.597Z,6.90
2018-12-30T02:51:20.601Z,6.80
2018-12-30T02:54:01.325Z,6.80
2018-12-30T02:56:41.886Z,6.80
2018-12-30T02:59:22.226Z,6.70
2018-12-30T03:02:02.690Z,6.80
2018-12-30T03:04:43.410Z,6.80
2018-12-30T03:07:24.611Z,6.80
2018-12-30T03:10:05.306Z,6.70
2018-12-30T03:12:46.082Z,6.70
2018-12-30T03:15:26.458Z,6.80
2018-12-30T03:18:07.270Z,6.70
2018-12-30T03:20:48.593Z,6.60
2018-12-30T03:23:29.266Z,6.80
2018-12-30T03:26:10.467Z,6.80
2018-12-30T03:28:50.952Z,6.70
2018-12-30T03:31:31.740Z,6.70
2018-12-30T03:34:12.490Z,6.80
2018-12-30T03:36:52.955Z,6.80
2018-12-30T03:39:33.634Z,6.80
2018-12-30T03:42:14.198Z,6.80
2018-12-30T03:44:54.579Z,6.80
2018-12-30T03:47:34.886Z,6.80
2018-12-30T03:50:15.515Z,6.80
2018-12-30T03:52:56.207Z,6.80
2018-12-30T03:55:36.946Z,6.70
2018-12-30T03:58:17.626Z,6.80
2018-12-30T04:00:58.806Z,6.60
2018-12-30T04:03:39.429Z,6.60
2018-12-30T04:06:20.327Z,6.80
2018-12-30T04:09:01.375Z,6.80
2018-12-30T04:11:42.317Z,6.80
2018-12-30T04:14:22.818Z,6.80
2018-12-30T04:17:04.192Z,6.80
2018-12-30T04:19:45.042Z,6.80
2018-12-30T04:22:26.312Z,6.80
2018-12-30T04:25:07.443Z,6.70
2018-12-30T04:27:48.130Z,6.70
2018-12-30T04:30:28.660Z,6.70
2018-12-30T04:33:09.080Z,6.70
2018-12-30T04:35:49.517Z,6.70
2018-12-30T04:38:30.012Z,6.70
2018-12-30T04:41:10.762Z,6.70
2018-12-30T04:43:51.266Z,6.70
2018-12-30T04:46:31.899Z,6.70
2018-12-30T04:49:12.466Z,6.70
2018-12-30T04:51:53.246Z,6.70
2018-12-30T04:54:33.630Z,6.70
2018-12-30T04:57:14.894Z,6.60
2018-12-30T04:59:55.572Z,6.70
2018-12-30T05:02:36.286Z,6.70
2018-12-30T05:05:17.269Z,6.70
2018-12-30T05:07:58.221Z,6.70
2018-12-30T05:10:39.515Z,6.70
2018-12-30T05:13:20.246Z,6.70
2018-12-30T05:16:01.237Z,6.70
2018-12-30T05:18:41.533Z,6.60
2018-12-30T05:21:22.160Z,6.70
2018-12-30T05:24:03.346Z,6.70
2018-12-30T05:26:43.937Z,6.50
2018-12-30T05:29:24.302Z,6.70
2018-12-30T05:32:04.611Z,6.70
2018-12-30T05:34:44.959Z,6.70
2018-12-30T05:37:25.260Z,6.50
2018-12-30T05:40:06.337Z,6.70
2018-12-30T05:42:47.339Z,6.70
2018-12-30T05:45:28.059Z,6.70
2018-12-30T05:48:08.506Z,6.70
2018-12-30T05:50:49.114Z,6.50
2018-12-30T05:53:30.323Z,6.70
2018-12-30T05:56:10.846Z,6.60
2018-12-30T05:58:51.590Z,6.60
2018-12-30T06:01:32.412Z,6.60
2018-12-30T06:04:13.185Z,6.50
2018-12-30T06:06:53.954Z,6.60
2018-12-30T06:09:34.654Z,6.60
2018-12-30T06:12:15.137Z,6.70
2018-12-30T06:14:55.654Z,6.70
2018-12-30T06:17:36.118Z,6.50
2018-12-30T06:20:17.001Z,6.60
2018-12-30T06:22:57.737Z,6.70
2018-12-30T06:25:38.146Z,6.60
2018-12-30T06:28:18.723Z,6.60
2018-12-30T06:30:59.159Z,6.70
2018-12-30T06:33:39.459Z,6.60
2018-12-30T06:36:19.986Z,6.60
2018-12-30T06:39:00.429Z,6.60
2018-12-30T06:41:41.078Z,6.50
2018-12-30T06:44:21.735Z,6.60
2018-12-30T06:47:02.745Z,6.70
2018-12-30T06:49:43.547Z,6.70
2018-12-30T06:52:23.973Z,6.70
2018-12-30T06:55:04.447Z,6.70
2018-12-30T06:57:44.774Z,6.60
2018-12-30T07:00:25.559Z,6.60
2018-12-30T07:03:06.355Z,6.70
2018-12-30T07:05:47.185Z,6.60
2018-12-30T07:08:27.715Z,6.60
2018-12-30T07:11:08.953Z,6.70
2018-12-30T07:13:49.829Z,6.70
2018-12-30T07:16:31.027Z,6.70
2018-12-30T07:19:11.765Z,6.50
2018-12-30T07:21:52.246Z,6.60
2018-12-30T07:24:32.970Z,6.70
2018-12-30T07:27:14.073Z,6.70
2018-12-30T07:29:54.554Z,6.70
2018-12-30T07:32:35.354Z,6.70
2018-12-30T07:35:16.171Z,6.70
2018-12-30T07:37:56.634Z,6.70
2018-12-30T07:40:37.159Z,6.70
2018-12-30T07:43:17.802Z,6.70
2018-12-30T07:45:58.791Z,6.70
2018-12-30T07:48:39.305Z,6.60
2018-12-30T07:51:20.587Z,6.60
2018-12-30T07:54:01.732Z,6.70
2018-12-30T07:56:42.854Z,6.70
2018-12-30T07:59:23.111Z,6.70
2018-12-30T08:02:03.847Z,6.60
2018-12-30T08:04:44.618Z,6.60
2018-12-30T08:07:25.151Z,6.60
2018-12-30T08:10:06.082Z,6.50
2018-12-30T08:12:46.862Z,6.70
2018-12-30T08:15:27.502Z,6.70
2018-12-30T08:18:07.967Z,6.70
2018-12-30T08:20:48.913Z,6.60
2018-12-30T08:23:29.674Z,6.70
2018-12-30T08:26:10.123Z,6.70
2018-12-30T08:28:50.809Z,6.70
2018-12-30T08:31:31.578Z,6.70
2018-12-30T08:34:12.322Z,6.70
2018-12-30T08:36:53.156Z,6.70
2018-12-30T08:39:33.717Z,6.70
2018-12-30T08:42:14.437Z,6.80
2018-12-30T08:44:55.352Z,6.80
2018-12-30T08:47:36.145Z,6.80
2018-12-30T08:50:16.567Z,6.70
2018-12-30T08:52:57.063Z,6.80
2018-12-30T08:55:38.077Z,6.70
2018-12-30T08:58:18.921Z,6.80
2018-12-30T09:00:59.697Z,6.90
2018-12-30T09:03:40.344Z,6.90
2018-12-30T09:06:21.127Z,6.90
2018-12-30T09:09:01.648Z,6.90
2018-12-30T09:11:42.609Z,6.90
2018-12-30T09:14:23.386Z,6.90
2018-12-30T09:17:04.178Z,6.90
2018-12-30T09:19:44.942Z,6.90
2018-12-30T09:22:25.758Z,6.90
2018-12-30T09:25:06.565Z,7.00
2018-12-30T09:27:47.218Z,7.00
2018-12-30T09:30:27.779Z,7.00
2018-12-30T09:33:08.522Z,7.00
2018-12-30T09:35:49.162Z,7.00
2018-12-30T09:38:29.718Z,7.10
2018-12-30T09:41:11.091Z,7.10
2018-12-30T09:43:51.955Z,7.20
2018-12-30T09:46:32.691Z,7.20
2018-12-30T09:49:13.357Z,7.20
2018-12-30T09:51:54.115Z,7.20
2018-12-30T09:54:34.510Z,7.20
2018-12-30T09:57:15.118Z,7.20
2018-12-30T09:59:55.487Z,7.30
2018-12-30T10:02:36.184Z,7.20
2018-12-30T10:05:16.699Z,7.20
2018-12-30T10:07:57.226Z,7.20
2018-12-30T10:10:37.736Z,7.20
2018-12-30T10:13:18.471Z,7.20
2018-12-30T10:15:58.944Z,7.20
2018-12-30T10:18:39.294Z,7.30
2018-12-30T10:21:19.953Z,7.40
2018-12-30T10:24:00.937Z,7.40
2018-12-30T10:26:41.427Z,7.40
2018-12-30T10:29:22.495Z,7.50
2018-12-30T10:32:03.023Z,7.50
2018-12-30T10:34:43.950Z,7.50
2018-12-30T10:37:24.696Z,7.60
2018-12-30T10:40:05.496Z,7.60
2018-12-30T10:42:46.039Z,7.50
2018-12-30T10:45:26.914Z,7.50
2018-12-30T10:48:07.620Z,7.60
2018-12-30T10:50:48.451Z,7.50
2018-12-30T10:53:29.386Z,7.50
2018-12-30T10:56:09.933Z,7.50
2018-12-30T10:58:50.585Z,7.50
2018-12-30T11:01:31.252Z,7.50
2018-12-30T11:04:11.882Z,7.60
2018-12-30T11:06:52.633Z,7.50
2018-12-30T11:09:33.840Z,7.40
2018-12-30T11:12:14.779Z,7.50
2018-12-30T11:14:55.353Z,7.50
2018-12-30T11:17:36.144Z,7.50
2018-12-30T11:20:16.595Z,7.40
2018-12-30T11:22:57.618Z,7.40
2018-12-30T11:25:37.899Z,7.40
2018-12-30T11:28:18.690Z,7.40
2018-12-30T11:30:59.490Z,7.40
2018-12-30T11:33:39.785Z,7.50
2018-12-30T11:36:20.578Z,7.50
2018-12-30T11:39:01.471Z,7.50
2018-12-30T11:41:42.434Z,7.50
2018-12-30T11:44:23.610Z,7.50
2018-12-30T11:47:04.188Z,7.50
2018-12-30T11:49:45.053Z,7.50
2018-12-30T11:52:25.891Z,7.60
2018-12-30T11:55:06.675Z,7.50
2018-12-30T11:57:47.299Z,7.60
2018-12-30T12:00:28.094Z,7.60
2018-12-30T12:03:08.430Z,7.60
2018-12-30T12:05:48.983Z,7.60
2018-12-30T12:08:29.574Z,7.50
2018-12-30T12:11:10.750Z,7.50
2018-12-30T12:13:51.346Z,7.50
2018-12-30T12:16:31.804Z,7.50
2018-12-30T12:19:12.287Z,7.50
2018-12-30T12:21:53.175Z,7.50
2018-12-30T12:24:33.509Z,7.40
2018-12-30T12:27:13.944Z,7.50
2018-12-30T12:29:54.569Z,7.40
2018-12-30T12:32:35.710Z,7.60
2018-12-30T12:35:16.358Z,7.60
2018-12-30T12:37:57.198Z,7.60
2018-12-30T12:40:38.069Z,7.70
2018-12-30T12:43:19.017Z,7.70
2018-12-30T12:45:59.998Z,7.70
2018-12-30T12:48:40.463Z,7.70
2018-12-30T12:51:21.269Z,7.70
2018-12-30T12:54:01.978Z,7.70
2018-12-30T12:56:42.774Z,7.70
2018-12-30T12:59:23.504Z,7.60
2018-12-30T13:02:03.871Z,7.70
2018-12-30T13:04:44.391Z,7.50
2018-12-30T13:07:24.776Z,7.60
2018-12-30T13:10:05.271Z,7.50
2018-12-30T13:12:45.630Z,7.60
2018-12-30T13:15:26.102Z,7.60
2018-12-30T13:18:07.461Z,7.60
2018-12-30T13:20:47.977Z,7.60
2018-12-30T13:23:28.698Z,7.50
2018-12-30T13:26:09.191Z,7.60
2018-12-30T13:28:49.978Z,7.50
2018-12-30T13:31:30.953Z,7.60
2018-12-30T13:34:12.159Z,7.50
2018-12-30T13:36:53.261Z,7.50
2018-12-30T13:39:34.032Z,7.50
2018-12-30T13:42:14.591Z,7.50
2018-12-30T13:44:55.344Z,7.50
2018-12-30T13:47:35.922Z,7.50
2018-12-30T13:50:16.416Z,7.40
2018-12-30T13:52:57.022Z,7.50
2018-12-30T13:55:37.945Z,7.50
2018-12-30T13:58:19.051Z,7.50
2018-12-30T14:00:59.901Z,7.50
2018-12-30T14:03:40.610Z,7.50
2018-12-30T14:06:21.285Z,7.50
2018-12-30T14:09:02.113Z,7.40
2018-12-30T14:11:42.645Z,7.40
2018-12-30T14:14:23.251Z,7.40
2018-12-30T14:17:04.354Z,7.40
2018-12-30T14:19:45.440Z,7.40
2018-12-30T14:22:25.930Z,7.40
2018-12-30T14:25:06.376Z,7.40
2018-12-30T14:27:46.873Z,7.40
2018-12-30T14:30:27.286Z,7.40
2018-12-30T14:33:07.686Z,7.40
2018-12-30T14:35:48.864Z,7.40
2018-12-30T14:38:29.198Z,7.40
2018-12-30T14:41:09.624Z,7.40
2018-12-30T14:43:49.986Z,7.40
2018-12-30T14:46:34.711Z,7.40
2018-12-30T14:49:13.733Z,7.30
2018-12-30T14:51:54.289Z,7.40
2018-12-30T14:54:35.226Z,7.40
2018-12-30T14:57:15.558Z,7.40
2018-12-30T14:59:56.435Z,7.20
2018-12-30T15:02:37.263Z,7.40
2018-12-30T15:05:17.764Z,7.30
2018-12-30T15:07:58.591Z,7.30
2018-12-30T15:10:39.519Z,7.30
2018-12-30T15:13:19.794Z,7.30
2018-12-30T15:16:00.286Z,7.30
2018-12-30T15:18:40.983Z,7.30
2018-12-30T15:21:22.246Z,7.30
2018-12-30T15:24:03.205Z,7.30
2018-12-30T15:26:43.712Z,7.30
2018-12-30T15:29:24.568Z,7.30
2018-12-30T15:32:05.519Z,7.30
2018-12-30T15:34:46.254Z,7.30
2018-12-30T15:37:26.639Z,7.30
2018-12-30T15:40:07.362Z,7.30
2018-12-30T15:42:48.338Z,7.30
2018-12-30T15:45:29.347Z,7.30
2018-12-30T15:48:10.378Z,7.30
2018-12-30T15:50:51.443Z,7.30
2018-12-30T15:53:32.684Z,7.20
2018-12-30T15:56:13.231Z,7.20
2018-12-30T15:58:53.862Z,7.20
2018-12-30T16:01:34.678Z,7.30
2018-12-30T16:04:14.983Z,7.20
2018-12-30T16:06:55.781Z,7.20
2018-12-30T16:09:36.216Z,7.20
2018-12-30T16:12:17.263Z,7.20
2018-12-30T16:14:57.782Z,7.10
2018-12-30T16:17:38.523Z,7.20
2018-12-30T16:20:18.944Z,7.20
2018-12-30T16:22:59.563Z,7.20
2018-12-30T16:25:40.170Z,7.20
2018-12-30T16:28:20.870Z,7.20
2018-12-30T16:31:01.274Z,7.20
2018-12-30T16:33:42.078Z,7.20
2018-12-30T16:36:23.051Z,7.20
2018-12-30T16:39:04.306Z,7.20
2018-12-30T16:41:45.450Z,7.20
2018-12-30T16:44:26.027Z,7.20
2018-12-30T16:47:06.557Z,7.20
2018-12-30T16:49:47.120Z,7.20
2018-12-30T16:52:27.911Z,7.20
2018-12-30T16:55:08.476Z,7.20
2018-12-30T16:57:49.186Z,7.20
2018-12-30T17:00:29.992Z,7.20
2018-12-30T17:03:10.550Z,7.20
2018-12-30T17:05:50.913Z,7.20
2018-12-30T17:08:31.703Z,7.20
2018-12-30T17:11:12.474Z,7.20
2018-12-30T17:13:52.920Z,7.20
2018-12-30T17:16:33.752Z,7.10
2018-12-30T17:19:14.182Z,7.10
2018-12-30T17:21:55.067Z,7.10
2018-12-30T17:24:35.799Z,7.10
2018-12-30T17:27:16.340Z,7.10
2018-12-30T17:29:56.860Z,7.10
2018-12-30T17:32:37.305Z,7.10
2018-12-30T17:35:18.430Z,7.10
2018-12-30T17:37:59.225Z,7.10
2018-12-30T17:40:39.834Z,7.10
2018-12-30T17:43:21.012Z,7.10
2018-12-30T17:46:01.533Z,7.10
2018-12-30T17:48:42.252Z,7.10
2018-12-30T17:51:23.098Z,7.10
2018-12-30T17:54:03.770Z,7.10
2018-12-30T17:56:44.266Z,7.10
2018-12-30T17:59:25.143Z,7.10
2018-12-30T18:02:05.764Z,7.00
2018-12-30T18:04:46.623Z,7.00
2018-12-30T18:07:27.557Z,7.00
2018-12-30T18:10:08.394Z,7.00
2018-12-30T18:12:48.914Z,6.90
2018-12-30T18:15:29.409Z,6.90
2018-12-30T18:18:09.938Z,6.90
2018-12-30T18:20:50.905Z,6.90
2018-12-30T18:23:31.603Z,6.90
2018-12-30T18:26:12.430Z,6.90
2018-12-30T18:28:52.796Z,6.90
2018-12-30T18:31:33.787Z,6.90
2018-12-30T18:34:14.561Z,6.90
2018-12-30T18:36:55.315Z,6.80
2018-12-30T18:39:36.347Z,6.80
2018-12-30T18:42:16.862Z,6.80
2018-12-30T18:44:57.380Z,6.80
2018-12-30T18:47:38.266Z,6.80
2018-12-30T18:50:18.687Z,6.80
2018-12-30T18:52:59.423Z,6.80
2018-12-30T18:55:40.343Z,6.80
2018-12-30T18:58:21.101Z,6.80
2018-12-30T19:01:01.592Z,6.80
2018-12-30T19:03:42.361Z,6.80
2018-12-30T19:06:23.567Z,6.80
2018-12-30T19:09:04.622Z,6.80
2018-12-30T19:11:45.182Z,6.70
2018-12-30T19:14:25.607Z,6.60
2018-12-30T19:17:05.989Z,6.70
2018-12-30T19:19:46.667Z,6.70
2018-12-30T19:22:27.604Z,6.70
2018-12-30T19:25:08.303Z,6.70
2018-12-30T19:27:48.777Z,6.70
2018-12-30T19:30:29.260Z,6.60
2018-12-30T19:33:09.758Z,6.60
2018-12-30T19:35:50.478Z,6.70
2018-12-30T19:38:31.159Z,6.70
2018-12-30T19:41:11.725Z,6.70
2018-12-30T19:43:52.481Z,6.70
2018-12-30T19:46:33.110Z,6.70
2018-12-30T19:49:13.990Z,6.70
2018-12-30T19:51:54.714Z,6.70
2018-12-30T19:54:35.264Z,6.70
2018-12-30T19:57:15.974Z,6.70
2018-12-30T19:59:56.864Z,6.70
2018-12-30T20:02:37.223Z,6.70
2018-12-30T20:05:17.971Z,6.70
2018-12-30T20:07:58.777Z,6.70
2018-12-30T20:10:39.545Z,6.70
2018-12-30T20:13:19.925Z,6.70
2018-12-30T20:16:00.302Z,6.60
2018-12-30T20:18:40.958Z,6.70
2018-12-30T20:21:22.446Z,6.70
2018-12-30T20:24:03.534Z,6.70
2018-12-30T20:26:43.939Z,6.70
2018-12-30T20:29:24.874Z,6.70
2018-12-30T20:32:05.570Z,6.70
2018-12-30T20:34:45.986Z,6.70
2018-12-30T20:37:27.221Z,6.70
2018-12-30T20:40:07.574Z,6.70
2018-12-30T20:42:47.959Z,6.70
2018-12-30T20:45:28.761Z,6.70
2018-12-30T20:48:09.454Z,6.70
2018-12-30T20:50:49.870Z,6.70
2018-12-30T20:53:30.431Z,6.80
2018-12-30T20:56:10.938Z,6.70
2018-12-30T20:58:51.591Z,6.80
2018-12-30T21:01:32.170Z,6.70
2018-12-30T21:04:12.800Z,6.70
2018-12-30T21:06:53.689Z,6.80
2018-12-30T21:09:34.415Z,6.70
2018-12-30T21:12:15.259Z,6.70
2018-12-30T21:14:56.129Z,6.80
2018-12-30T21:17:36.979Z,6.80
2018-12-30T21:20:17.356Z,6.70
2018-12-30T21:22:58.116Z,6.80
2018-12-30T21:25:39.022Z,6.80
2018-12-30T21:28:19.735Z,6.80
2018-12-30T21:31:00.542Z,6.80
2018-12-30T21:33:41.062Z,6.80
2018-12-30T21:36:21.729Z,6.80
2018-12-30T21:39:02.066Z,6.80
2018-12-30T21:41:42.767Z,6.80
2018-12-30T21:44:23.283Z,6.80
2018-12-30T21:47:04.176Z,6.80
2018-12-30T21:49:44.519Z,6.80
2018-12-30T21:52:25.318Z,6.90
2018-12-30T21:55:06.541Z,6.90
2018-12-30T21:57:46.881Z,6.90
2018-12-30T22:00:27.251Z,6.90
2018-12-30T22:03:07.735Z,6.90
2018-12-30T22:05:48.630Z,6.90
2018-12-30T22:08:29.011Z,6.90
2018-12-30T22:11:09.564Z,6.90
2018-12-30T22:13:50.067Z,7.00
2018-12-30T22:16:30.998Z,7.00
2018-12-30T22:19:11.790Z,7.00
2018-12-30T22:21:52.253Z,7.00
2018-12-30T22:24:33.577Z,6.90
2018-12-30T22:27:14.798Z,7.00
2018-12-30T22:29:55.192Z,7.00
2018-12-30T22:32:35.952Z,7.00
2018-12-30T22:35:16.828Z,7.00
2018-12-30T22:37:57.851Z,7.00
2018-12-30T22:40:38.783Z,7.00
2018-12-30T22:43:19.692Z,7.00
2018-12-30T22:46:00.210Z,7.00
2018-12-30T22:48:40.906Z,7.00
2018-12-30T22:51:21.459Z,6.90
2018-12-30T22:54:02.038Z,7.00
2018-12-30T22:56:42.772Z,7.10
2018-12-30T22:59:23.765Z,7.00
2018-12-30T23:02:04.378Z,7.00
2018-12-30T23:04:45.018Z,7.10
2018-12-30T23:07:25.894Z,7.10
2018-12-30T23:10:06.647Z,7.10
2018-12-30T23:12:47.208Z,7.10
2018-12-30T23:15:27.786Z,7.10
2018-12-30T23:18:08.589Z,7.10
2018-12-30T23:20:49.662Z,7.10
2018-12-30T23:23:30.517Z,7.10
2018-12-30T23:26:11.443Z,7.10
2018-12-30T23:28:51.983Z,7.10
2018-12-30T23:31:32.897Z,7.20
2018-12-30T23:34:13.523Z,7.10
2018-12-30T23:36:54.319Z,7.10
2018-12-30T23:39:35.219Z,7.10
2018-12-30T23:42:16.750Z,7.20
2018-12-30T23:44:57.797Z,7.10
2018-12-30T23:47:38.431Z,7.20
2018-12-30T23:50:19.307Z,7.20
2018-12-30T23:53:00.576Z,7.20
2018-12-30T23:55:41.511Z,7.20
2018-12-30T23:58:22.271Z,7.20
